• Join FlightAware (Why Join?)
  • Login
  • US Flag 
08:46AM EST


 

Airport Tracker/Info


-or-


 

Live Flight TrackerFlight Track Log ✈ SWA305 ✈ 16-Jun-2013 ✈ KPDX - KRNO

Flight Track Log - Related Links

Times and Time Zones

All times are in EDT time to prevent confusion due to time zone crossing. See the SWA305 flight status page for this flight to view local times or setup timezone preferences in your user account.

Time Position Orientation Groundspeed Altitude Reporting Facility
EDT Latitude Longitude Course Direction KTS MPH feet Rate Location/Type
12:25PM 45.5942 -122.6194 301° West 151 174 900  Level Seattle Center
12:26PM 45.6108 -122.6589 301° West 165 190 2,200 1,800 Climbing Seattle Center
12:26PM 45.6211 -122.6792 306° West 191 220 2,900 2,040 Climbing Seattle Center
12:27PM 45.6389 -122.7672 286° West 229 264 5,100 3,180 Climbing Seattle Center
12:28PM 45.5775 -122.7658 179° South 259 298 9,400 3,540 Climbing Seattle Center
12:29PM 45.5172 -122.6939 140° Southeast 281 323 12,400 3,000 Climbing Seattle Center
12:30PM 45.4472 -122.6075 139° Southeast 324 373 15,600 3,000 Climbing Seattle Center
12:31PM 45.3719 -122.5181 140° Southeast 347 399 18,500 3,000 Climbing Seattle Center
12:32PM 45.2772 -122.4044 140° Southeast 369 425 21,800 2,940 Climbing Seattle Center
12:33PM 45.1928 -122.3044 140° Southeast 388 447 24,500 2,400 Climbing Seattle Center
12:34PM 45.1069 -122.2033 140° Southeast 399 459 26,800 2,040 Climbing Seattle Center
12:35PM 45.0100 -122.1161 148° Southeast 411 473 28,700 1,740 Climbing Seattle Center
12:36PM 44.9039 -122.0456 155° Southeast 420 483 30,400 1,860 Climbing Seattle Center
12:37PM 44.7981 -121.9742 154° Southeast 422 486 32,600 2,160 Climbing Seattle Center
12:38PM 44.6900 -121.9025 155° Southeast 421 484 34,800 1,140 Climbing Seattle Center
12:39PM 44.5881 -121.8353 155° Southeast 412 474 35,000 60 Climbing Seattle Center
12:40PM 44.4847 -121.7683 155° Southeast 411 473 35,000  Level Seattle Center
12:41PM 44.3814 -121.7011 155° Southeast 411 473 35,000  Level Seattle Center
12:42PM 44.2781 -121.6322 154° Southeast 413 475 35,000  Level Seattle Center
12:43PM 44.1733 -121.5644 155° Southeast 415 478 35,000  Level Seattle Center
12:44PM 44.0683 -121.4969 155° Southeast 417 480 35,000  Level Seattle Center
12:45PM 43.9419 -121.4150 155° Southeast 419 482 35,000 180 Level Seattle Center
12:46PM 43.8358 -121.3469 155° Southeast 420 483 35,400 960 Climbing Seattle Center
12:47PM 43.7358 -121.2825 155° Southeast 419 482 37,000 1,320 Climbing Seattle Center
12:48PM 43.6319 -121.2153 155° Southeast 414 476 38,100 960 Climbing Seattle Center
12:49PM 43.5261 -121.1489 156° South 418 481 39,000 420 Climbing Seattle Center
12:50PM 43.4197 -121.0794 155° Southeast 423 487 39,000  Level Seattle Center
12:51PM 43.3147 -121.0136 155° Southeast 418 481 39,000  Level Seattle Center
12:52PM 43.2061 -120.9447 155° Southeast 416 479 39,000  Level Seattle Center
12:53PM 43.0978 -120.8922 161° South 413 475 39,000  Level Seattle Center
12:54PM 42.9806 -120.8461 164° South 412 474 39,000  Level Seattle Center
12:55PM 42.8703 -120.8006 163° South 412 474 39,000  Level Seattle Center
12:56PM 42.7481 -120.7492 163° South 410 472 39,000  Level Seattle Center
12:58PM 42.6389 -120.7036 163° South 410 472 39,000  Level Seattle Center
12:59PM 42.5281 -120.6586 163° South 415 478 39,000  Level Seattle Center
01:00PM 42.4183 -120.6125 163° South 414 476 39,000  Level Seattle Center
01:01PM 42.3078 -120.5681 163° South 415 478 39,000  Level Seattle Center
01:02PM 42.1969 -120.5250 164° South 416 479 39,000  Level Seattle Center
01:03PM 42.0867 -120.4778 162° South 416 479 39,000  Level Seattle Center
01:04PM 41.9622 -120.4289 164° South 415 478 39,000  Level Seattle Center
01:05PM 41.8511 -120.3878 165° South 412 474 39,000  Level Seattle Center
01:06PM 41.7436 -120.3458 164° South 418 481 39,000  Level Seattle Center
01:07PM 41.6361 -120.3008 163° South 414 476 39,000  Level Seattle Center
01:08PM 41.5233 -120.2578 164° South 419 482 39,000 -420 Level Seattle Center
01:09PM 41.4067 -120.2122 164° South 418 481 38,200 -1,560 Descending Seattle Center
01:10PM 41.2139 -120.1339 163° South 414 476 34,800 -2,220 Descending Oakland Center
01:11PM 41.1764 -120.1217 166° South 417 480 33,800 -1,740 Descending Seattle Center
01:12PM 41.0692 -120.0872 166° South 416 479 32,600 -1,140 Descending Seattle Center
01:13PM 40.9375 -120.0506 168° South 430 495 31,600 -960 Descending Seattle Center
01:14PM 40.8639 -120.0303 168° South 430 495 30,900 -900 Descending Oakland Center
01:15PM 40.7519 -119.9967 167° South 426 490 30,000 -1,320 Descending Oakland Center
01:16PM 40.6153 -119.9581 168° South 420 483 28,300 -1,980 Descending Oakland Center
01:17PM 40.5061 -119.9283 168° South 407 468 26,000 -2,220 Descending Oakland Center
01:18PM 40.3997 -119.8978 168° South 394 453 23,900 -2,100 Descending Oakland Center
01:19PM 40.2967 -119.8692 168° South 382 440 21,700 -2,100 Descending Oakland Center
01:20PM 40.1969 -119.8422 168° South 371 427 19,700 -1,980 Descending Oakland Center
01:21PM 40.1028 -119.8147 167° South 352 405 17,700 -2,040 Descending Oakland Center
01:22PM 40.0092 -119.7903 169° South 346 398 15,600 -2,100 Descending Oakland Center
01:23PM 39.9156 -119.7700 171° South 343 395 13,400 -2,460 Descending Oakland Center
01:24PM 39.8050 -119.7686 179° South 335 386 10,600 -1,680 Descending Oakland Center
01:25PM 39.7231 -119.7700 181° South 312 359 10,000 -540 Descending Oakland Center
01:26PM 39.6611 -119.7669 178° South 255 293 9,500 -1,140 Descending Oakland Center
01:27PM 39.6161 -119.7681 181° South 199 229 7,700 -2,040 Descending Oakland Center
01:27PM 39.6000 -119.7667 176° South 172 198 6,800 -1,920 Descending Northern Cal TRACON
01:28PM 39.5500 -119.7667 180° South 159 183 5,200 -1,620 Descending Northern Cal TRACON
01:30PM 39.4991 -119.7681 237° Southwest  Level Estimated
01:37PM 39.4991 -119.7681 237° Southwest  Level Estimated